sensor_id;sensor_type;location;lat;lon;timestamp;P1;durP1;ratioP1;P2;durP2;ratioP2
10711;SDS011;5407;51.234;6.804;2023-11-21T00:06:56;10.27;;;6.17;;
10711;SDS011;5407;51.234;6.804;2023-11-21T00:15:02;14.53;;;6.40;;
10711;SDS011;5407;51.234;6.804;2023-11-21T00:17:41;13.57;;;6.73;;
10711;SDS011;5407;51.234;6.804;2023-11-21T00:20:16;11.77;;;6.83;;
10711;SDS011;5407;51.234;6.804;2023-11-21T00:22:53;13.97;;;6.33;;
10711;SDS011;5407;51.234;6.804;2023-11-21T00:28:16;12.27;;;6.50;;
10711;SDS011;5407;51.234;6.804;2023-11-21T00:30:50;14.47;;;6.60;;
10711;SDS011;5407;51.234;6.804;2023-11-21T00:33:20;17.13;;;6.97;;
10711;SDS011;5407;51.234;6.804;2023-11-21T00:35:58;12.77;;;6.50;;
10711;SDS011;5407;51.234;6.804;2023-11-21T00:38:32;11.80;;;6.37;;
10711;SDS011;5407;51.234;6.804;2023-11-21T00:41:04;13.33;;;6.57;;
10711;SDS011;5407;51.234;6.804;2023-11-21T00:43:44;15.13;;;7.17;;
10711;SDS011;5407;51.234;6.804;2023-11-21T00:46:22;15.50;;;7.20;;
10711;SDS011;5407;51.234;6.804;2023-11-21T00:48:53;11.93;;;7.13;;
10711;SDS011;5407;51.234;6.804;2023-11-21T00:51:24;14.77;;;7.70;;
10711;SDS011;5407;51.234;6.804;2023-11-21T00:53:55;15.03;;;7.50;;
10711;SDS011;5407;51.234;6.804;2023-11-21T00:56:23;19.10;;;8.40;;
10711;SDS011;5407;51.234;6.804;2023-11-21T00:58:57;18.40;;;9.13;;
10711;SDS011;5407;51.234;6.804;2023-11-21T01:01:29;17.93;;;9.57;;
10711;SDS011;5407;51.234;6.804;2023-11-21T01:04:01;18.27;;;9.70;;
10711;SDS011;5407;51.234;6.804;2023-11-21T01:06:40;16.47;;;9.73;;
10711;SDS011;5407;51.234;6.804;2023-11-21T01:09:16;20.93;;;9.63;;
10711;SDS011;5407;51.234;6.804;2023-11-21T01:11:44;19.67;;;9.83;;
10711;SDS011;5407;51.234;6.804;2023-11-21T01:14:13;20.47;;;10.50;;
10711;SDS011;5407;51.234;6.804;2023-11-21T01:16:40;19.20;;;9.90;;
10711;SDS011;5407;51.234;6.804;2023-11-21T01:19:07;18.37;;;11.00;;
10711;SDS011;5407;51.234;6.804;2023-11-21T01:21:35;20.27;;;11.43;;
10711;SDS011;5407;51.234;6.804;2023-11-21T01:24:02;21.27;;;11.37;;
10711;SDS011;5407;51.234;6.804;2023-11-21T01:26:34;20.77;;;11.80;;
10711;SDS011;5407;51.234;6.804;2023-11-21T01:29:01;22.30;;;11.83;;
10711;SDS011;5407;51.234;6.804;2023-11-21T01:31:28;22.47;;;12.03;;
10711;SDS011;5407;51.234;6.804;2023-11-21T01:33:55;22.53;;;11.87;;
10711;SDS011;5407;51.234;6.804;2023-11-21T01:36:22;25.13;;;11.90;;
10711;SDS011;5407;51.234;6.804;2023-11-21T01:38:49;27.00;;;12.30;;
10711;SDS011;5407;51.234;6.804;2023-11-21T01:41:17;22.93;;;12.27;;
10711;SDS011;5407;51.234;6.804;2023-11-21T01:43:47;20.73;;;11.80;;
10711;SDS011;5407;51.234;6.804;2023-11-21T01:46:14;20.87;;;12.30;;
10711;SDS011;5407;51.234;6.804;2023-11-21T01:48:42;20.50;;;11.77;;
10711;SDS011;5407;51.234;6.804;2023-11-21T01:51:10;24.53;;;12.20;;
10711;SDS011;5407;51.234;6.804;2023-11-21T01:53:38;22.57;;;12.37;;
10711;SDS011;5407;51.234;6.804;2023-11-21T01:56:06;21.13;;;11.43;;
10711;SDS011;5407;51.234;6.804;2023-11-21T01:58:37;17.47;;;11.33;;
10711;SDS011;5407;51.234;6.804;2023-11-21T02:01:29;22.03;;;12.10;;
10711;SDS011;5407;51.234;6.804;2023-11-21T02:04:06;20.87;;;12.17;;
10711;SDS011;5407;51.234;6.804;2023-11-21T02:06:35;20.20;;;11.37;;
10711;SDS011;5407;51.234;6.804;2023-11-21T02:09:05;20.57;;;11.77;;
10711;SDS011;5407;51.234;6.804;2023-11-21T02:11:45;17.73;;;12.17;;
10711;SDS011;5407;51.234;6.804;2023-11-21T02:14:23;19.00;;;11.97;;
10711;SDS011;5407;51.234;6.804;2023-11-21T02:17:02;22.87;;;12.30;;
10711;SDS011;5407;51.234;6.804;2023-11-21T02:19:33;22.17;;;12.53;;
10711;SDS011;5407;51.234;6.804;2023-11-21T02:22:06;25.57;;;13.10;;
10711;SDS011;5407;51.234;6.804;2023-11-21T02:24:45;21.83;;;12.17;;
10711;SDS011;5407;51.234;6.804;2023-11-21T02:27:18;21.10;;;12.10;;
10711;SDS011;5407;51.234;6.804;2023-11-21T02:29:50;19.10;;;12.60;;
10711;SDS011;5407;51.234;6.804;2023-11-21T02:32:28;21.03;;;12.03;;
10711;SDS011;5407;51.234;6.804;2023-11-21T02:35:02;20.63;;;12.27;;
10711;SDS011;5407;51.234;6.804;2023-11-21T02:37:39;16.40;;;11.23;;
10711;SDS011;5407;51.234;6.804;2023-11-21T02:40:10;20.33;;;11.80;;
10711;SDS011;5407;51.234;6.804;2023-11-21T02:42:44;21.03;;;11.17;;
10711;SDS011;5407;51.234;6.804;2023-11-21T02:45:13;19.37;;;11.77;;
10711;SDS011;5407;51.234;6.804;2023-11-21T02:47:42;16.47;;;10.97;;
10711;SDS011;5407;51.234;6.804;2023-11-21T02:50:13;22.47;;;11.53;;
10711;SDS011;5407;51.234;6.804;2023-11-21T02:52:44;17.93;;;10.60;;
10711;SDS011;5407;51.234;6.804;2023-11-21T02:55:15;18.67;;;10.57;;
10711;SDS011;5407;51.234;6.804;2023-11-21T02:57:48;18.97;;;11.33;;
10711;SDS011;5407;51.234;6.804;2023-11-21T03:00:21;17.50;;;11.03;;
10711;SDS011;5407;51.234;6.804;2023-11-21T03:02:55;16.93;;;11.20;;
10711;SDS011;5407;51.234;6.804;2023-11-21T03:05:23;20.13;;;11.43;;
10711;SDS011;5407;51.234;6.804;2023-11-21T03:07:51;18.00;;;11.53;;
10711;SDS011;5407;51.234;6.804;2023-11-21T03:10:23;18.47;;;11.70;;
10711;SDS011;5407;51.234;6.804;2023-11-21T03:12:51;19.53;;;11.27;;
10711;SDS011;5407;51.234;6.804;2023-11-21T03:15:27;17.20;;;11.30;;
10711;SDS011;5407;51.234;6.804;2023-11-21T03:17:54;21.60;;;11.93;;
10711;SDS011;5407;51.234;6.804;2023-11-21T03:20:23;19.97;;;11.27;;
10711;SDS011;5407;51.234;6.804;2023-11-21T03:22:54;19.20;;;11.73;;
10711;SDS011;5407;51.234;6.804;2023-11-21T03:25:28;18.13;;;11.37;;
10711;SDS011;5407;51.234;6.804;2023-11-21T03:28:00;17.20;;;11.63;;
10711;SDS011;5407;51.234;6.804;2023-11-21T03:30:28;21.50;;;12.07;;
10711;SDS011;5407;51.234;6.804;2023-11-21T03:32:55;21.77;;;12.07;;
10711;SDS011;5407;51.234;6.804;2023-11-21T03:35:22;17.77;;;11.27;;
10711;SDS011;5407;51.234;6.804;2023-11-21T03:37:49;16.27;;;11.73;;
10711;SDS011;5407;51.234;6.804;2023-11-21T03:40:16;21.30;;;12.27;;
10711;SDS011;5407;51.234;6.804;2023-11-21T03:42:45;20.87;;;12.20;;
10711;SDS011;5407;51.234;6.804;2023-11-21T03:45:11;17.20;;;11.97;;
10711;SDS011;5407;51.234;6.804;2023-11-21T03:47:40;20.57;;;12.50;;
10711;SDS011;5407;51.234;6.804;2023-11-21T03:50:08;18.30;;;11.63;;
10711;SDS011;5407;51.234;6.804;2023-11-21T03:52:35;18.27;;;11.67;;
10711;SDS011;5407;51.234;6.804;2023-11-21T03:55:02;20.87;;;12.17;;
10711;SDS011;5407;51.234;6.804;2023-11-21T03:57:29;17.60;;;12.03;;
10711;SDS011;5407;51.234;6.804;2023-11-21T03:59:58;20.60;;;12.57;;
10711;SDS011;5407;51.234;6.804;2023-11-21T04:02:25;18.80;;;12.90;;
10711;SDS011;5407;51.234;6.804;2023-11-21T04:04:53;18.97;;;12.40;;
10711;SDS011;5407;51.234;6.804;2023-11-21T04:07:20;20.73;;;13.47;;
10711;SDS011;5407;51.234;6.804;2023-11-21T04:09:47;21.17;;;14.73;;
10711;SDS011;5407;51.234;6.804;2023-11-21T04:12:14;19.13;;;13.60;;
10711;SDS011;5407;51.234;6.804;2023-11-21T04:14:41;22.93;;;15.27;;
10711;SDS011;5407;51.234;6.804;2023-11-21T04:17:09;20.47;;;14.43;;
10711;SDS011;5407;51.234;6.804;2023-11-21T04:19:36;24.83;;;14.50;;
10711;SDS011;5407;51.234;6.804;2023-11-21T04:22:03;18.80;;;13.73;;
10711;SDS011;5407;51.234;6.804;2023-11-21T04:24:30;25.90;;;15.50;;
10711;SDS011;5407;51.234;6.804;2023-11-21T04:26:57;25.47;;;16.07;;
10711;SDS011;5407;51.234;6.804;2023-11-21T04:29:24;25.17;;;15.67;;
10711;SDS011;5407;51.234;6.804;2023-11-21T04:31:52;25.63;;;14.83;;
10711;SDS011;5407;51.234;6.804;2023-11-21T04:34:20;23.33;;;15.50;;
10711;SDS011;5407;51.234;6.804;2023-11-21T04:36:47;27.30;;;16.57;;
10711;SDS011;5407;51.234;6.804;2023-11-21T04:39:14;25.67;;;17.10;;
10711;SDS011;5407;51.234;6.804;2023-11-21T04:41:41;24.90;;;17.00;;
10711;SDS011;5407;51.234;6.804;2023-11-21T04:44:08;24.17;;;15.43;;
10711;SDS011;5407;51.234;6.804;2023-11-21T04:46:35;24.33;;;15.80;;
10711;SDS011;5407;51.234;6.804;2023-11-21T04:49:01;22.07;;;15.50;;
10711;SDS011;5407;51.234;6.804;2023-11-21T04:51:30;21.57;;;15.20;;
10711;SDS011;5407;51.234;6.804;2023-11-21T04:53:57;26.97;;;15.67;;
10711;SDS011;5407;51.234;6.804;2023-11-21T04:56:24;23.60;;;15.47;;
10711;SDS011;5407;51.234;6.804;2023-11-21T04:58:51;22.13;;;15.30;;
10711;SDS011;5407;51.234;6.804;2023-11-21T05:01:27;22.13;;;15.60;;
10711;SDS011;5407;51.234;6.804;2023-11-21T05:04:08;26.27;;;15.63;;
10711;SDS011;5407;51.234;6.804;2023-11-21T05:06:39;23.93;;;16.40;;
10711;SDS011;5407;51.234;6.804;2023-11-21T05:09:10;26.97;;;15.70;;
10711;SDS011;5407;51.234;6.804;2023-11-21T05:11:40;27.07;;;16.47;;
10711;SDS011;5407;51.234;6.804;2023-11-21T05:14:22;21.07;;;16.10;;
10711;SDS011;5407;51.234;6.804;2023-11-21T05:17:13;27.47;;;16.80;;
10711;SDS011;5407;51.234;6.804;2023-11-21T05:19:42;23.90;;;15.83;;
10711;SDS011;5407;51.234;6.804;2023-11-21T05:22:19;24.83;;;15.53;;
10711;SDS011;5407;51.234;6.804;2023-11-21T05:24:55;27.70;;;15.50;;
10711;SDS011;5407;51.234;6.804;2023-11-21T05:27:28;28.53;;;15.77;;
10711;SDS011;5407;51.234;6.804;2023-11-21T05:30:01;29.13;;;16.17;;
10711;SDS011;5407;51.234;6.804;2023-11-21T05:32:31;26.03;;;16.17;;
10711;SDS011;5407;51.234;6.804;2023-11-21T05:34:58;21.53;;;16.23;;
10711;SDS011;5407;51.234;6.804;2023-11-21T05:37:27;24.50;;;16.77;;
10711;SDS011;5407;51.234;6.804;2023-11-21T05:39:55;27.50;;;17.27;;
10711;SDS011;5407;51.234;6.804;2023-11-21T05:42:22;25.60;;;17.60;;
10711;SDS011;5407;51.234;6.804;2023-11-21T05:44:49;26.70;;;17.77;;
10711;SDS011;5407;51.234;6.804;2023-11-21T05:47:17;26.57;;;17.90;;
10711;SDS011;5407;51.234;6.804;2023-11-21T05:49:44;24.10;;;16.83;;
10711;SDS011;5407;51.234;6.804;2023-11-21T05:52:15;29.67;;;17.33;;
10711;SDS011;5407;51.234;6.804;2023-11-21T05:54:44;27.00;;;18.53;;
10711;SDS011;5407;51.234;6.804;2023-11-21T05:57:11;28.57;;;18.07;;
10711;SDS011;5407;51.234;6.804;2023-11-21T05:59:38;27.17;;;17.97;;
10711;SDS011;5407;51.234;6.804;2023-11-21T06:02:05;28.60;;;18.10;;
10711;SDS011;5407;51.234;6.804;2023-11-21T06:04:33;29.10;;;19.10;;
10711;SDS011;5407;51.234;6.804;2023-11-21T06:07:00;28.07;;;17.70;;
10711;SDS011;5407;51.234;6.804;2023-11-21T06:09:28;28.00;;;18.93;;
10711;SDS011;5407;51.234;6.804;2023-11-21T06:11:56;29.33;;;18.50;;
10711;SDS011;5407;51.234;6.804;2023-11-21T06:14:24;26.50;;;17.97;;
10711;SDS011;5407;51.234;6.804;2023-11-21T06:16:51;25.00;;;18.57;;
10711;SDS011;5407;51.234;6.804;2023-11-21T06:19:18;33.10;;;19.07;;
10711;SDS011;5407;51.234;6.804;2023-11-21T06:21:45;28.23;;;19.60;;
10711;SDS011;5407;51.234;6.804;2023-11-21T06:24:13;31.67;;;20.10;;
10711;SDS011;5407;51.234;6.804;2023-11-21T06:26:41;31.97;;;19.77;;
10711;SDS011;5407;51.234;6.804;2023-11-21T06:29:10;30.43;;;19.60;;
10711;SDS011;5407;51.234;6.804;2023-11-21T06:31:38;29.53;;;19.83;;
10711;SDS011;5407;51.234;6.804;2023-11-21T06:34:06;28.17;;;19.37;;
10711;SDS011;5407;51.234;6.804;2023-11-21T06:36:35;32.50;;;19.73;;
10711;SDS011;5407;51.234;6.804;2023-11-21T06:39:02;31.10;;;20.00;;
10711;SDS011;5407;51.234;6.804;2023-11-21T06:41:32;28.83;;;19.83;;
10711;SDS011;5407;51.234;6.804;2023-11-21T06:43:59;33.40;;;20.53;;
10711;SDS011;5407;51.234;6.804;2023-11-21T06:46:29;36.07;;;20.77;;
10711;SDS011;5407;51.234;6.804;2023-11-21T06:48:56;33.20;;;21.53;;
10711;SDS011;5407;51.234;6.804;2023-11-21T06:51:30;33.90;;;22.37;;
10711;SDS011;5407;51.234;6.804;2023-11-21T06:54:00;31.90;;;21.50;;
10711;SDS011;5407;51.234;6.804;2023-11-21T06:56:28;34.37;;;21.70;;
10711;SDS011;5407;51.234;6.804;2023-11-21T06:58:56;33.40;;;22.70;;
10711;SDS011;5407;51.234;6.804;2023-11-21T07:01:23;32.97;;;21.43;;
10711;SDS011;5407;51.234;6.804;2023-11-21T07:03:52;36.00;;;21.90;;
10711;SDS011;5407;51.234;6.804;2023-11-21T07:06:18;37.70;;;23.00;;
10711;SDS011;5407;51.234;6.804;2023-11-21T07:08:46;34.90;;;22.63;;
10711;SDS011;5407;51.234;6.804;2023-11-21T07:11:13;31.60;;;21.33;;
10711;SDS011;5407;51.234;6.804;2023-11-21T07:13:40;34.30;;;20.20;;
10711;SDS011;5407;51.234;6.804;2023-11-21T07:16:07;38.17;;;20.33;;
10711;SDS011;5407;51.234;6.804;2023-11-21T07:18:35;33.50;;;20.37;;
10711;SDS011;5407;51.234;6.804;2023-11-21T07:21:04;35.00;;;20.20;;
10711;SDS011;5407;51.234;6.804;2023-11-21T07:23:31;35.13;;;20.43;;
10711;SDS011;5407;51.234;6.804;2023-11-21T07:26:00;34.67;;;20.17;;
10711;SDS011;5407;51.234;6.804;2023-11-21T07:28:34;35.63;;;20.13;;
10711;SDS011;5407;51.234;6.804;2023-11-21T07:31:02;37.80;;;21.13;;
10711;SDS011;5407;51.234;6.804;2023-11-21T07:33:31;40.03;;;20.80;;
10711;SDS011;5407;51.234;6.804;2023-11-21T07:35:58;40.30;;;21.90;;
10711;SDS011;5407;51.234;6.804;2023-11-21T07:38:26;33.97;;;20.20;;
10711;SDS011;5407;51.234;6.804;2023-11-21T07:40:53;32.63;;;19.17;;
10711;SDS011;5407;51.234;6.804;2023-11-21T07:43:20;34.37;;;20.70;;
10711;SDS011;5407;51.234;6.804;2023-11-21T07:45:47;38.50;;;22.00;;
10711;SDS011;5407;51.234;6.804;2023-11-21T07:48:14;35.80;;;20.17;;
10711;SDS011;5407;51.234;6.804;2023-11-21T07:50:41;32.53;;;19.90;;
10711;SDS011;5407;51.234;6.804;2023-11-21T07:53:08;35.03;;;20.17;;
10711;SDS011;5407;51.234;6.804;2023-11-21T07:55:36;35.23;;;19.53;;
10711;SDS011;5407;51.234;6.804;2023-11-21T07:58:03;37.23;;;20.80;;
10711;SDS011;5407;51.234;6.804;2023-11-21T08:00:30;28.70;;;17.90;;
10711;SDS011;5407;51.234;6.804;2023-11-21T08:02:57;35.47;;;19.63;;
10711;SDS011;5407;51.234;6.804;2023-11-21T08:05:24;34.80;;;18.80;;
10711;SDS011;5407;51.234;6.804;2023-11-21T08:07:51;29.97;;;19.27;;
10711;SDS011;5407;51.234;6.804;2023-11-21T08:10:18;33.63;;;20.00;;
10711;SDS011;5407;51.234;6.804;2023-11-21T08:12:48;30.00;;;18.60;;
10711;SDS011;5407;51.234;6.804;2023-11-21T08:15:16;34.23;;;19.37;;
10711;SDS011;5407;51.234;6.804;2023-11-21T08:17:43;35.13;;;21.10;;
10711;SDS011;5407;51.234;6.804;2023-11-21T08:20:10;34.10;;;21.23;;
10711;SDS011;5407;51.234;6.804;2023-11-21T08:22:41;33.93;;;21.00;;
10711;SDS011;5407;51.234;6.804;2023-11-21T08:25:08;35.60;;;21.07;;
10711;SDS011;5407;51.234;6.804;2023-11-21T08:27:35;40.17;;;21.90;;
10711;SDS011;5407;51.234;6.804;2023-11-21T08:30:04;41.47;;;23.67;;
10711;SDS011;5407;51.234;6.804;2023-11-21T08:32:32;39.60;;;21.60;;
10711;SDS011;5407;51.234;6.804;2023-11-21T08:35:00;42.57;;;22.10;;
10711;SDS011;5407;51.234;6.804;2023-11-21T08:37:27;41.33;;;23.23;;
10711;SDS011;5407;51.234;6.804;2023-11-21T08:39:57;40.60;;;23.20;;
10711;SDS011;5407;51.234;6.804;2023-11-21T08:42:25;40.17;;;23.50;;
10711;SDS011;5407;51.234;6.804;2023-11-21T08:44:55;46.70;;;25.03;;
10711;SDS011;5407;51.234;6.804;2023-11-21T08:47:24;41.40;;;24.20;;
10711;SDS011;5407;51.234;6.804;2023-11-21T08:49:51;41.77;;;23.90;;
10711;SDS011;5407;51.234;6.804;2023-11-21T08:52:18;35.77;;;22.83;;
10711;SDS011;5407;51.234;6.804;2023-11-21T08:54:48;38.97;;;23.50;;
10711;SDS011;5407;51.234;6.804;2023-11-21T08:57:21;37.70;;;22.57;;
10711;SDS011;5407;51.234;6.804;2023-11-21T08:59:48;41.40;;;23.77;;
10711;SDS011;5407;51.234;6.804;2023-11-21T09:02:20;37.93;;;22.83;;
10711;SDS011;5407;51.234;6.804;2023-11-21T09:04:49;38.00;;;23.17;;
10711;SDS011;5407;51.234;6.804;2023-11-21T09:07:17;30.47;;;21.63;;
10711;SDS011;5407;51.234;6.804;2023-11-21T09:09:45;34.30;;;22.80;;
10711;SDS011;5407;51.234;6.804;2023-11-21T09:12:12;31.97;;;21.83;;
10711;SDS011;5407;51.234;6.804;2023-11-21T09:14:39;39.27;;;23.63;;
10711;SDS011;5407;51.234;6.804;2023-11-21T09:17:06;39.97;;;24.90;;
10711;SDS011;5407;51.234;6.804;2023-11-21T09:19:36;43.87;;;24.13;;
10711;SDS011;5407;51.234;6.804;2023-11-21T09:22:04;42.47;;;25.47;;
10711;SDS011;5407;51.234;6.804;2023-11-21T09:24:31;44.97;;;25.43;;
10711;SDS011;5407;51.234;6.804;2023-11-21T09:26:58;43.47;;;25.83;;
10711;SDS011;5407;51.234;6.804;2023-11-21T09:29:26;45.17;;;26.07;;
10711;SDS011;5407;51.234;6.804;2023-11-21T09:31:54;47.93;;;27.83;;
10711;SDS011;5407;51.234;6.804;2023-11-21T09:34:24;54.30;;;32.90;;
10711;SDS011;5407;51.234;6.804;2023-11-21T09:36:51;50.13;;;27.90;;
10711;SDS011;5407;51.234;6.804;2023-11-21T09:39:19;41.37;;;26.17;;
10711;SDS011;5407;51.234;6.804;2023-11-21T09:41:49;48.93;;;28.50;;
10711;SDS011;5407;51.234;6.804;2023-11-21T09:44:19;46.30;;;29.23;;
10711;SDS011;5407;51.234;6.804;2023-11-21T09:46:59;37.00;;;24.37;;
10711;SDS011;5407;51.234;6.804;2023-11-21T09:49:26;37.80;;;23.80;;
10711;SDS011;5407;51.234;6.804;2023-11-21T09:52:00;34.57;;;21.97;;
10711;SDS011;5407;51.234;6.804;2023-11-21T09:54:31;38.77;;;22.47;;
10711;SDS011;5407;51.234;6.804;2023-11-21T09:56:59;36.87;;;23.67;;
10711;SDS011;5407;51.234;6.804;2023-11-21T09:59:27;41.70;;;22.93;;
10711;SDS011;5407;51.234;6.804;2023-11-21T10:01:57;39.60;;;24.00;;
10711;SDS011;5407;51.234;6.804;2023-11-21T10:04:25;41.43;;;24.30;;
10711;SDS011;5407;51.234;6.804;2023-11-21T10:06:52;42.33;;;24.37;;
10711;SDS011;5407;51.234;6.804;2023-11-21T10:09:20;39.07;;;23.53;;
10711;SDS011;5407;51.234;6.804;2023-11-21T10:11:50;36.60;;;23.23;;
10711;SDS011;5407;51.234;6.804;2023-11-21T10:14:18;34.47;;;23.13;;
10711;SDS011;5407;51.234;6.804;2023-11-21T10:16:51;35.03;;;22.37;;
10711;SDS011;5407;51.234;6.804;2023-11-21T10:19:18;38.37;;;22.50;;
10711;SDS011;5407;51.234;6.804;2023-11-21T10:21:49;38.97;;;22.87;;
10711;SDS011;5407;51.234;6.804;2023-11-21T10:24:16;39.73;;;24.30;;
10711;SDS011;5407;51.234;6.804;2023-11-21T10:26:43;43.37;;;26.47;;
10711;SDS011;5407;51.234;6.804;2023-11-21T10:29:15;44.17;;;25.83;;
10711;SDS011;5407;51.234;6.804;2023-11-21T10:31:43;48.97;;;29.90;;
10711;SDS011;5407;51.234;6.804;2023-11-21T10:34:12;47.00;;;28.90;;
10711;SDS011;5407;51.234;6.804;2023-11-21T10:36:40;51.20;;;30.00;;
10711;SDS011;5407;51.234;6.804;2023-11-21T10:39:07;56.60;;;32.17;;
10711;SDS011;5407;51.234;6.804;2023-11-21T10:41:35;65.80;;;35.73;;
10711;SDS011;5407;51.234;6.804;2023-11-21T10:44:02;62.00;;;35.93;;
10711;SDS011;5407;51.234;6.804;2023-11-21T10:46:34;70.17;;;39.57;;
10711;SDS011;5407;51.234;6.804;2023-11-21T10:49:01;67.97;;;38.27;;
10711;SDS011;5407;51.234;6.804;2023-11-21T10:51:28;78.97;;;40.37;;
10711;SDS011;5407;51.234;6.804;2023-11-21T10:53:55;67.80;;;38.83;;
10711;SDS011;5407;51.234;6.804;2023-11-21T10:56:25;73.67;;;39.27;;
10711;SDS011;5407;51.234;6.804;2023-11-21T10:58:55;72.27;;;38.80;;
10711;SDS011;5407;51.234;6.804;2023-11-21T11:01:23;73.47;;;40.00;;
10711;SDS011;5407;51.234;6.804;2023-11-21T11:03:56;80.57;;;41.70;;
10711;SDS011;5407;51.234;6.804;2023-11-21T11:06:24;76.40;;;41.63;;
10711;SDS011;5407;51.234;6.804;2023-11-21T11:08:52;78.10;;;42.47;;
10711;SDS011;5407;51.234;6.804;2023-11-21T11:11:20;78.00;;;41.90;;
10711;SDS011;5407;51.234;6.804;2023-11-21T11:13:47;82.03;;;42.80;;
10711;SDS011;5407;51.234;6.804;2023-11-21T11:16:15;76.10;;;41.87;;
10711;SDS011;5407;51.234;6.804;2023-11-21T11:18:43;77.87;;;42.80;;
10711;SDS011;5407;51.234;6.804;2023-11-21T11:21:16;80.00;;;41.67;;
10711;SDS011;5407;51.234;6.804;2023-11-21T11:23:55;81.23;;;41.73;;
10711;SDS011;5407;51.234;6.804;2023-11-21T11:26:36;73.27;;;39.87;;
10711;SDS011;5407;51.234;6.804;2023-11-21T11:29:11;78.03;;;40.80;;
10711;SDS011;5407;51.234;6.804;2023-11-21T11:31:48;73.13;;;40.60;;
10711;SDS011;5407;51.234;6.804;2023-11-21T11:34:23;74.73;;;41.40;;
10711;SDS011;5407;51.234;6.804;2023-11-21T11:36:59;79.70;;;41.87;;
10711;SDS011;5407;51.234;6.804;2023-11-21T11:39:29;74.67;;;39.70;;
10711;SDS011;5407;51.234;6.804;2023-11-21T11:41:57;71.43;;;39.30;;
10711;SDS011;5407;51.234;6.804;2023-11-21T11:47:20;73.83;;;38.87;;
10711;SDS011;5407;51.234;6.804;2023-11-21T11:49:56;75.07;;;38.97;;
10711;SDS011;5407;51.234;6.804;2023-11-21T11:52:38;74.83;;;39.33;;
10711;SDS011;5407;51.234;6.804;2023-11-21T11:55:06;73.27;;;36.83;;
10711;SDS011;5407;51.234;6.804;2023-11-21T11:57:36;66.10;;;35.80;;
10711;SDS011;5407;51.234;6.804;2023-11-21T12:00:08;67.57;;;36.97;;
10711;SDS011;5407;51.234;6.804;2023-11-21T12:02:37;67.73;;;37.10;;
10711;SDS011;5407;51.234;6.804;2023-11-21T12:05:08;73.80;;;37.87;;
10711;SDS011;5407;51.234;6.804;2023-11-21T12:07:42;74.10;;;39.87;;
10711;SDS011;5407;51.234;6.804;2023-11-21T12:10:15;59.83;;;35.47;;
10711;SDS011;5407;51.234;6.804;2023-11-21T12:12:56;67.10;;;37.03;;
10711;SDS011;5407;51.234;6.804;2023-11-21T12:15:25;72.13;;;37.67;;
10711;SDS011;5407;51.234;6.804;2023-11-21T12:18:03;70.30;;;36.97;;
10711;SDS011;5407;51.234;6.804;2023-11-21T12:20:31;68.23;;;36.57;;
10711;SDS011;5407;51.234;6.804;2023-11-21T12:23:05;63.73;;;34.57;;
10711;SDS011;5407;51.234;6.804;2023-11-21T12:25:34;64.40;;;34.17;;
10711;SDS011;5407;51.234;6.804;2023-11-21T12:28:05;66.37;;;33.90;;
10711;SDS011;5407;51.234;6.804;2023-11-21T12:30:42;61.37;;;32.60;;
10711;SDS011;5407;51.234;6.804;2023-11-21T12:33:13;57.10;;;31.57;;
10711;SDS011;5407;51.234;6.804;2023-11-21T12:35:46;54.97;;;28.93;;
10711;SDS011;5407;51.234;6.804;2023-11-21T12:38:16;52.07;;;27.50;;
10711;SDS011;5407;51.234;6.804;2023-11-21T12:40:45;53.87;;;28.47;;
10711;SDS011;5407;51.234;6.804;2023-11-21T12:43:12;47.23;;;26.27;;
10711;SDS011;5407;51.234;6.804;2023-11-21T12:45:39;41.93;;;24.50;;
10711;SDS011;5407;51.234;6.804;2023-11-21T12:48:09;46.90;;;25.03;;
10711;SDS011;5407;51.234;6.804;2023-11-21T12:50:37;77.97;;;51.60;;
10711;SDS011;5407;51.234;6.804;2023-11-21T12:53:08;47.10;;;26.60;;
10711;SDS011;5407;51.234;6.804;2023-11-21T12:55:45;46.43;;;24.40;;
10711;SDS011;5407;51.234;6.804;2023-11-21T12:58:21;44.40;;;25.53;;
10711;SDS011;5407;51.234;6.804;2023-11-21T13:00:54;53.43;;;30.77;;
10711;SDS011;5407;51.234;6.804;2023-11-21T13:03:28;56.00;;;31.20;;
10711;SDS011;5407;51.234;6.804;2023-11-21T13:05:58;65.83;;;31.97;;
10711;SDS011;5407;51.234;6.804;2023-11-21T13:08:26;54.40;;;32.13;;
10711;SDS011;5407;51.234;6.804;2023-11-21T13:10:57;53.50;;;30.20;;
10711;SDS011;5407;51.234;6.804;2023-11-21T13:13:24;57.10;;;30.03;;
10711;SDS011;5407;51.234;6.804;2023-11-21T13:15:53;57.67;;;31.53;;
10711;SDS011;5407;51.234;6.804;2023-11-21T13:18:22;51.63;;;30.17;;
10711;SDS011;5407;51.234;6.804;2023-11-21T13:20:49;53.20;;;30.40;;
10711;SDS011;5407;51.234;6.804;2023-11-21T13:23:16;51.57;;;30.73;;
10711;SDS011;5407;51.234;6.804;2023-11-21T13:25:43;52.50;;;31.43;;
10711;SDS011;5407;51.234;6.804;2023-11-21T13:28:11;61.90;;;32.40;;
10711;SDS011;5407;51.234;6.804;2023-11-21T13:30:40;60.50;;;32.10;;
10711;SDS011;5407;51.234;6.804;2023-11-21T13:33:09;58.10;;;33.97;;
10711;SDS011;5407;51.234;6.804;2023-11-21T13:35:42;57.97;;;33.73;;
10711;SDS011;5407;51.234;6.804;2023-11-21T13:38:13;60.33;;;33.47;;
10711;SDS011;5407;51.234;6.804;2023-11-21T13:40:45;59.47;;;33.40;;
10711;SDS011;5407;51.234;6.804;2023-11-21T13:43:16;63.53;;;34.47;;
10711;SDS011;5407;51.234;6.804;2023-11-21T13:45:46;62.83;;;36.13;;
10711;SDS011;5407;51.234;6.804;2023-11-21T13:48:15;65.00;;;36.40;;
10711;SDS011;5407;51.234;6.804;2023-11-21T13:50:50;62.53;;;34.43;;
10711;SDS011;5407;51.234;6.804;2023-11-21T13:53:24;61.23;;;34.63;;
10711;SDS011;5407;51.234;6.804;2023-11-21T13:55:51;62.57;;;34.07;;
10711;SDS011;5407;51.234;6.804;2023-11-21T13:58:21;62.63;;;34.17;;
10711;SDS011;5407;51.234;6.804;2023-11-21T14:00:54;60.57;;;32.43;;
10711;SDS011;5407;51.234;6.804;2023-11-21T14:03:22;61.37;;;33.87;;
10711;SDS011;5407;51.234;6.804;2023-11-21T14:05:58;61.40;;;36.00;;
10711;SDS011;5407;51.234;6.804;2023-11-21T14:08:26;64.53;;;37.50;;
10711;SDS011;5407;51.234;6.804;2023-11-21T14:10:54;68.57;;;39.60;;
10711;SDS011;5407;51.234;6.804;2023-11-21T14:13:24;68.10;;;38.03;;
10711;SDS011;5407;51.234;6.804;2023-11-21T14:15:51;57.40;;;30.37;;
10711;SDS011;5407;51.234;6.804;2023-11-21T14:18:23;44.80;;;26.80;;
10711;SDS011;5407;51.234;6.804;2023-11-21T14:20:56;36.10;;;21.63;;
10711;SDS011;5407;51.234;6.804;2023-11-21T14:23:36;29.23;;;18.03;;
10711;SDS011;5407;51.234;6.804;2023-11-21T14:28:40;27.67;;;17.10;;
10711;SDS011;5407;51.234;6.804;2023-11-21T14:31:12;28.37;;;17.17;;
10711;SDS011;5407;51.234;6.804;2023-11-21T14:33:42;30.90;;;16.90;;
10711;SDS011;5407;51.234;6.804;2023-11-21T14:36:14;29.67;;;17.17;;
10711;SDS011;5407;51.234;6.804;2023-11-21T14:58:30;18.60;;;13.57;;
10711;SDS011;5407;51.234;6.804;2023-11-21T15:01:03;20.37;;;13.97;;
10711;SDS011;5407;51.234;6.804;2023-11-21T15:03:30;21.40;;;14.17;;
10711;SDS011;5407;51.234;6.804;2023-11-21T15:06:15;20.37;;;15.17;;
10711;SDS011;5407;51.234;6.804;2023-11-21T15:08:48;19.70;;;15.10;;
10711;SDS011;5407;51.234;6.804;2023-11-21T15:11:21;19.07;;;15.83;;
10711;SDS011;5407;51.234;6.804;2023-11-21T15:13:54;20.20;;;16.57;;
10711;SDS011;5407;51.234;6.804;2023-11-21T15:16:21;20.67;;;16.90;;
10711;SDS011;5407;51.234;6.804;2023-11-21T15:18:47;20.50;;;16.37;;
10711;SDS011;5407;51.234;6.804;2023-11-21T15:21:14;19.70;;;16.57;;
10711;SDS011;5407;51.234;6.804;2023-11-21T15:23:41;19.53;;;17.37;;
10711;SDS011;5407;51.234;6.804;2023-11-21T15:26:08;25.60;;;20.33;;
10711;SDS011;5407;51.234;6.804;2023-11-21T15:28:39;23.03;;;18.83;;
10711;SDS011;5407;51.234;6.804;2023-11-21T15:31:10;32.10;;;24.87;;